sensor_id;sensor_type;location;lat;lon;timestamp;temperature;humidity
68248;SHT30;55064;49.636;12.164;2022-11-30T00:01:20;3.10;93.40
68248;SHT30;55064;49.636;12.164;2022-11-30T00:03:52;3.14;93.28
68248;SHT30;55064;49.636;12.164;2022-11-30T00:06:20;3.15;93.51
68248;SHT30;55064;49.636;12.164;2022-11-30T00:08:57;3.17;93.72
68248;SHT30;55064;49.636;12.164;2022-11-30T00:11:25;3.18;93.00
68248;SHT30;55064;49.636;12.164;2022-11-30T00:13:51;3.17;93.47
68248;SHT30;55064;49.636;12.164;2022-11-30T00:16:21;3.18;93.57
68248;SHT30;55064;49.636;12.164;2022-11-30T00:18:47;3.11;94.26
68248;SHT30;55064;49.636;12.164;2022-11-30T00:21:13;3.17;93.97
68248;SHT30;55064;49.636;12.164;2022-11-30T00:23:41;3.19;94.03
68248;SHT30;55064;49.636;12.164;2022-11-30T00:26:15;3.14;94.35
68248;SHT30;55064;49.636;12.164;2022-11-30T00:28:44;3.10;94.68
68248;SHT30;55064;49.636;12.164;2022-11-30T00:31:12;3.15;94.57
68248;SHT30;55064;49.636;12.164;2022-11-30T00:33:38;3.17;94.50
68248;SHT30;55064;49.636;12.164;2022-11-30T00:36:09;3.10;95.06
68248;SHT30;55064;49.636;12.164;2022-11-30T00:38:37;3.07;95.79
68248;SHT30;55064;49.636;12.164;2022-11-30T00:41:06;3.10;95.32
68248;SHT30;55064;49.636;12.164;2022-11-30T00:43:32;3.17;94.90
68248;SHT30;55064;49.636;12.164;2022-11-30T00:45:59;3.12;94.99
68248;SHT30;55064;49.636;12.164;2022-11-30T00:48:28;3.05;95.39
68248;SHT30;55064;49.636;12.164;2022-11-30T00:50:53;3.05;95.56
68248;SHT30;55064;49.636;12.164;2022-11-30T00:53:21;3.00;95.95
68248;SHT30;55064;49.636;12.164;2022-11-30T00:55:48;2.97;96.16
68248;SHT30;55064;49.636;12.164;2022-11-30T00:58:14;2.96;96.16
68248;SHT30;55064;49.636;12.164;2022-11-30T01:00:40;2.97;96.24
68248;SHT30;55064;49.636;12.164;2022-11-30T01:03:06;2.94;96.30
68248;SHT30;55064;49.636;12.164;2022-11-30T01:05:33;2.96;96.46
68248;SHT30;55064;49.636;12.164;2022-11-30T01:08:00;2.93;96.46
68248;SHT30;55064;49.636;12.164;2022-11-30T01:10:25;2.93;96.40
68248;SHT30;55064;49.636;12.164;2022-11-30T01:12:53;2.93;96.44
68248;SHT30;55064;49.636;12.164;2022-11-30T01:15:24;2.91;96.61
68248;SHT30;55064;49.636;12.164;2022-11-30T01:17:49;2.91;96.64
68248;SHT30;55064;49.636;12.164;2022-11-30T01:20:23;2.94;96.72
68248;SHT30;55064;49.636;12.164;2022-11-30T01:22:53;2.90;96.61
68248;SHT30;55064;49.636;12.164;2022-11-30T01:25:19;2.96;96.29
68248;SHT30;55064;49.636;12.164;2022-11-30T01:27:47;2.99;96.20
68248;SHT30;55064;49.636;12.164;2022-11-30T01:30:13;2.91;96.10
68248;SHT30;55064;49.636;12.164;2022-11-30T01:32:38;2.80;96.52
68248;SHT30;55064;49.636;12.164;2022-11-30T01:35:04;2.86;96.47
68248;SHT30;55064;49.636;12.164;2022-11-30T01:37:32;2.81;96.25
68248;SHT30;55064;49.636;12.164;2022-11-30T01:39:57;2.87;96.26
68248;SHT30;55064;49.636;12.164;2022-11-30T01:42:25;2.77;96.78
68248;SHT30;55064;49.636;12.164;2022-11-30T01:44:57;2.79;96.68
68248;SHT30;55064;49.636;12.164;2022-11-30T01:47:34;2.84;96.05
68248;SHT30;55064;49.636;12.164;2022-11-30T01:52:42;2.91;94.79
68248;SHT30;55064;49.636;12.164;2022-11-30T01:55:36;2.91;94.28
68248;SHT30;55064;49.636;12.164;2022-11-30T01:58:11;2.90;94.35
68248;SHT30;55064;49.636;12.164;2022-11-30T02:00:43;2.94;94.26
68248;SHT30;55064;49.636;12.164;2022-11-30T02:05:44;2.90;94.46
68248;SHT30;55064;49.636;12.164;2022-11-30T02:08:11;2.90;94.97
68248;SHT30;55064;49.636;12.164;2022-11-30T02:10:39;2.81;95.72
68248;SHT30;55064;49.636;12.164;2022-11-30T02:16:24;2.81;95.18
68248;SHT30;55064;49.636;12.164;2022-11-30T02:30:04;2.83;94.27
68248;SHT30;55064;49.636;12.164;2022-11-30T02:32:33;2.84;94.25
68248;SHT30;55064;49.636;12.164;2022-11-30T02:35:02;2.83;94.14
68248;SHT30;55064;49.636;12.164;2022-11-30T02:37:31;2.80;93.98
68248;SHT30;55064;49.636;12.164;2022-11-30T02:39:58;2.80;94.02
68248;SHT30;55064;49.636;12.164;2022-11-30T02:42:23;2.77;94.43
68248;SHT30;55064;49.636;12.164;2022-11-30T02:44:50;2.80;94.29
68248;SHT30;55064;49.636;12.164;2022-11-30T02:47:30;2.73;94.19
68248;SHT30;55064;49.636;12.164;2022-11-30T02:50:16;2.79;94.31
68248;SHT30;55064;49.636;12.164;2022-11-30T02:52:43;2.76;94.49
68248;SHT30;55064;49.636;12.164;2022-11-30T02:55:10;2.81;94.49
68248;SHT30;55064;49.636;12.164;2022-11-30T02:57:38;2.83;94.32
68248;SHT30;55064;49.636;12.164;2022-11-30T03:00:06;2.77;95.17
68248;SHT30;55064;49.636;12.164;2022-11-30T03:02:34;2.75;95.10
68248;SHT30;55064;49.636;12.164;2022-11-30T03:05:06;2.83;94.53
68248;SHT30;55064;49.636;12.164;2022-11-30T03:07:31;2.83;94.05
68248;SHT30;55064;49.636;12.164;2022-11-30T03:09:57;2.81;94.22
68248;SHT30;55064;49.636;12.164;2022-11-30T03:12:24;2.84;94.30
68248;SHT30;55064;49.636;12.164;2022-11-30T03:14:49;2.86;94.22
68248;SHT30;55064;49.636;12.164;2022-11-30T03:17:16;2.84;94.77
68248;SHT30;55064;49.636;12.164;2022-11-30T03:19:45;2.79;95.14
68248;SHT30;55064;49.636;12.164;2022-11-30T03:22:12;2.77;95.12
68248;SHT30;55064;49.636;12.164;2022-11-30T03:24:37;2.76;94.89
68248;SHT30;55064;49.636;12.164;2022-11-30T03:27:03;2.76;95.04
68248;SHT30;55064;49.636;12.164;2022-11-30T03:29:28;2.67;95.31
68248;SHT30;55064;49.636;12.164;2022-11-30T03:31:54;2.64;95.46
68248;SHT30;55064;49.636;12.164;2022-11-30T03:34:25;2.59;95.13
68248;SHT30;55064;49.636;12.164;2022-11-30T03:36:52;2.50;95.39
68248;SHT30;55064;49.636;12.164;2022-11-30T03:39:18;2.45;95.18
68248;SHT30;55064;49.636;12.164;2022-11-30T03:41:43;2.44;95.37
68248;SHT30;55064;49.636;12.164;2022-11-30T03:44:09;2.50;95.15
68248;SHT30;55064;49.636;12.164;2022-11-30T03:46:34;2.53;94.64
68248;SHT30;55064;49.636;12.164;2022-11-30T03:49:02;2.42;95.84
68248;SHT30;55064;49.636;12.164;2022-11-30T03:51:30;2.39;95.46
68248;SHT30;55064;49.636;12.164;2022-11-30T03:53:56;2.38;95.52
68248;SHT30;55064;49.636;12.164;2022-11-30T03:56:21;2.45;94.91
68248;SHT30;55064;49.636;12.164;2022-11-30T03:58:47;2.48;94.74
68248;SHT30;55064;49.636;12.164;2022-11-30T04:01:15;2.46;94.85
68248;SHT30;55064;49.636;12.164;2022-11-30T04:03:43;2.48;94.17
68248;SHT30;55064;49.636;12.164;2022-11-30T04:06:10;2.45;94.51
68248;SHT30;55064;49.636;12.164;2022-11-30T04:08:37;2.39;94.26
68248;SHT30;55064;49.636;12.164;2022-11-30T04:11:03;2.38;94.83
68248;SHT30;55064;49.636;12.164;2022-11-30T04:13:31;2.42;94.98
68248;SHT30;55064;49.636;12.164;2022-11-30T04:15:58;2.41;95.03
68248;SHT30;55064;49.636;12.164;2022-11-30T04:18:25;2.44;94.55
68248;SHT30;55064;49.636;12.164;2022-11-30T04:20:55;2.48;94.20
68248;SHT30;55064;49.636;12.164;2022-11-30T04:23:21;2.42;94.82
68248;SHT30;55064;49.636;12.164;2022-11-30T04:25:47;2.44;95.02
68248;SHT30;55064;49.636;12.164;2022-11-30T04:28:15;2.35;95.23
68248;SHT30;55064;49.636;12.164;2022-11-30T04:30:44;2.39;94.33
68248;SHT30;55064;49.636;12.164;2022-11-30T04:33:13;2.41;94.27
68248;SHT30;55064;49.636;12.164;2022-11-30T04:35:46;2.42;94.29
68248;SHT30;55064;49.636;12.164;2022-11-30T04:38:14;2.41;94.08
68248;SHT30;55064;49.636;12.164;2022-11-30T04:40:42;2.34;94.24
68248;SHT30;55064;49.636;12.164;2022-11-30T04:43:11;2.34;94.36
68248;SHT30;55064;49.636;12.164;2022-11-30T04:45:37;2.32;94.62
68248;SHT30;55064;49.636;12.164;2022-11-30T04:48:06;2.35;94.49
68248;SHT30;55064;49.636;12.164;2022-11-30T04:50:32;2.38;94.48
68248;SHT30;55064;49.636;12.164;2022-11-30T04:53:00;2.42;94.23
68248;SHT30;55064;49.636;12.164;2022-11-30T04:55:29;2.39;94.35
68248;SHT30;55064;49.636;12.164;2022-11-30T04:57:54;2.34;94.65
68248;SHT30;55064;49.636;12.164;2022-11-30T05:00:20;2.25;95.24
68248;SHT30;55064;49.636;12.164;2022-11-30T05:02:45;2.26;95.06
68248;SHT30;55064;49.636;12.164;2022-11-30T05:05:12;2.28;95.13
68248;SHT30;55064;49.636;12.164;2022-11-30T05:07:42;2.29;94.99
68248;SHT30;55064;49.636;12.164;2022-11-30T05:10:07;2.29;95.19
68248;SHT30;55064;49.636;12.164;2022-11-30T05:12:35;2.28;95.13
68248;SHT30;55064;49.636;12.164;2022-11-30T05:15:02;2.24;95.24
68248;SHT30;55064;49.636;12.164;2022-11-30T05:17:27;2.26;95.48
68248;SHT30;55064;49.636;12.164;2022-11-30T05:19:53;2.26;95.34
68248;SHT30;55064;49.636;12.164;2022-11-30T05:22:18;2.29;95.46
68248;SHT30;55064;49.636;12.164;2022-11-30T05:24:43;2.32;94.98
68248;SHT30;55064;49.636;12.164;2022-11-30T05:27:09;2.31;94.88
68248;SHT30;55064;49.636;12.164;2022-11-30T05:29:34;2.34;94.96
68248;SHT30;55064;49.636;12.164;2022-11-30T05:32:02;2.29;95.14
68248;SHT30;55064;49.636;12.164;2022-11-30T05:34:28;2.29;95.04
68248;SHT30;55064;49.636;12.164;2022-11-30T05:36:57;2.31;95.21
68248;SHT30;55064;49.636;12.164;2022-11-30T05:39:24;2.36;95.08
68248;SHT30;55064;49.636;12.164;2022-11-30T05:41:49;2.42;94.43
68248;SHT30;55064;49.636;12.164;2022-11-30T05:44:17;2.41;94.65
68248;SHT30;55064;49.636;12.164;2022-11-30T05:46:45;2.38;94.35
68248;SHT30;55064;49.636;12.164;2022-11-30T05:49:10;2.35;94.77
68248;SHT30;55064;49.636;12.164;2022-11-30T05:51:38;2.42;94.77
68248;SHT30;55064;49.636;12.164;2022-11-30T05:54:04;2.42;94.23
68248;SHT30;55064;49.636;12.164;2022-11-30T05:56:32;2.45;94.24
68248;SHT30;55064;49.636;12.164;2022-11-30T05:58:57;2.46;94.61
68248;SHT30;55064;49.636;12.164;2022-11-30T06:01:25;2.36;95.07
68248;SHT30;55064;49.636;12.164;2022-11-30T06:03:51;2.41;94.64
68248;SHT30;55064;49.636;12.164;2022-11-30T06:06:19;2.35;94.77
68248;SHT30;55064;49.636;12.164;2022-11-30T06:08:46;2.42;94.54
68248;SHT30;55064;49.636;12.164;2022-11-30T06:11:15;2.46;93.90
68248;SHT30;55064;49.636;12.164;2022-11-30T06:13:40;2.49;93.45
68248;SHT30;55064;49.636;12.164;2022-11-30T06:16:06;2.48;92.53
68248;SHT30;55064;49.636;12.164;2022-11-30T06:18:32;2.49;92.55
68248;SHT30;55064;49.636;12.164;2022-11-30T06:21:02;2.46;92.42
68248;SHT30;55064;49.636;12.164;2022-11-30T06:23:33;2.45;92.09
68248;SHT30;55064;49.636;12.164;2022-11-30T06:26:05;2.46;92.05
68248;SHT30;55064;49.636;12.164;2022-11-30T06:28:30;2.46;92.25
68248;SHT30;55064;49.636;12.164;2022-11-30T06:31:00;2.49;92.70
68248;SHT30;55064;49.636;12.164;2022-11-30T06:33:26;2.52;92.42
68248;SHT30;55064;49.636;12.164;2022-11-30T06:35:53;2.48;92.00
68248;SHT30;55064;49.636;12.164;2022-11-30T06:38:21;2.52;92.27
68248;SHT30;55064;49.636;12.164;2022-11-30T06:40:49;2.52;92.36
68248;SHT30;55064;49.636;12.164;2022-11-30T06:43:15;2.55;92.45
68248;SHT30;55064;49.636;12.164;2022-11-30T06:45:46;2.55;92.33
68248;SHT30;55064;49.636;12.164;2022-11-30T06:48:14;2.50;92.06
68248;SHT30;55064;49.636;12.164;2022-11-30T06:50:40;2.50;92.17
68248;SHT30;55064;49.636;12.164;2022-11-30T06:53:08;2.53;91.41
68248;SHT30;55064;49.636;12.164;2022-11-30T06:55:33;2.50;91.57
68248;SHT30;55064;49.636;12.164;2022-11-30T06:58:09;2.52;91.87
68248;SHT30;55064;49.636;12.164;2022-11-30T07:00:35;2.48;90.50
68248;SHT30;55064;49.636;12.164;2022-11-30T07:03:01;2.42;91.63
68248;SHT30;55064;49.636;12.164;2022-11-30T07:05:27;2.39;92.07
68248;SHT30;55064;49.636;12.164;2022-11-30T07:07:53;2.45;91.29
68248;SHT30;55064;49.636;12.164;2022-11-30T07:10:20;2.45;90.95
68248;SHT30;55064;49.636;12.164;2022-11-30T07:12:47;2.45;91.39
68248;SHT30;55064;49.636;12.164;2022-11-30T07:15:15;2.46;91.67
68248;SHT30;55064;49.636;12.164;2022-11-30T07:17:43;2.41;92.11
68248;SHT30;55064;49.636;12.164;2022-11-30T07:20:08;2.49;91.24
68248;SHT30;55064;49.636;12.164;2022-11-30T07:22:34;2.53;91.37
68248;SHT30;55064;49.636;12.164;2022-11-30T07:24:59;2.53;91.00
68248;SHT30;55064;49.636;12.164;2022-11-30T07:27:45;2.49;90.71
68248;SHT30;55064;49.636;12.164;2022-11-30T07:30:11;2.49;90.75
68248;SHT30;55064;49.636;12.164;2022-11-30T07:32:39;2.42;90.42
68248;SHT30;55064;49.636;12.164;2022-11-30T07:35:04;2.44;90.95
68248;SHT30;55064;49.636;12.164;2022-11-30T07:37:32;2.41;90.36
68248;SHT30;55064;49.636;12.164;2022-11-30T07:39:57;2.36;91.03
68248;SHT30;55064;49.636;12.164;2022-11-30T07:42:22;2.39;90.48
68248;SHT30;55064;49.636;12.164;2022-11-30T07:44:50;2.42;90.74
68248;SHT30;55064;49.636;12.164;2022-11-30T07:47:20;2.34;90.94
68248;SHT30;55064;49.636;12.164;2022-11-30T07:49:48;2.35;90.21
68248;SHT30;55064;49.636;12.164;2022-11-30T07:52:13;2.41;90.93
68248;SHT30;55064;49.636;12.164;2022-11-30T07:54:40;2.44;90.82
68248;SHT30;55064;49.636;12.164;2022-11-30T07:57:10;2.44;90.38
68248;SHT30;55064;49.636;12.164;2022-11-30T07:59:35;2.48;90.86
68248;SHT30;55064;49.636;12.164;2022-11-30T08:02:04;2.48;91.32
68248;SHT30;55064;49.636;12.164;2022-11-30T08:04:29;2.53;90.28
68248;SHT30;55064;49.636;12.164;2022-11-30T08:06:54;2.56;90.19
68248;SHT30;55064;49.636;12.164;2022-11-30T08:09:22;2.48;89.33
68248;SHT30;55064;49.636;12.164;2022-11-30T08:11:50;2.49;89.65
68248;SHT30;55064;49.636;12.164;2022-11-30T08:14:15;2.46;89.39
68248;SHT30;55064;49.636;12.164;2022-11-30T08:16:41;2.41;89.52
68248;SHT30;55064;49.636;12.164;2022-11-30T08:19:09;2.45;90.03
68248;SHT30;55064;49.636;12.164;2022-11-30T08:21:34;2.46;89.18
68248;SHT30;55064;49.636;12.164;2022-11-30T08:24:02;2.50;88.99
68248;SHT30;55064;49.636;12.164;2022-11-30T08:26:32;2.49;88.81
68248;SHT30;55064;49.636;12.164;2022-11-30T08:29:00;2.55;89.84
68248;SHT30;55064;49.636;12.164;2022-11-30T08:31:31;2.50;90.70
68248;SHT30;55064;49.636;12.164;2022-11-30T08:34:08;2.49;89.98
68248;SHT30;55064;49.636;12.164;2022-11-30T08:36:35;2.56;89.31
68248;SHT30;55064;49.636;12.164;2022-11-30T08:39:01;2.55;88.60
68248;SHT30;55064;49.636;12.164;2022-11-30T08:41:28;2.50;88.75
68248;SHT30;55064;49.636;12.164;2022-11-30T08:43:54;2.55;88.88
68248;SHT30;55064;49.636;12.164;2022-11-30T08:46:21;2.45;89.95
68248;SHT30;55064;49.636;12.164;2022-11-30T08:48:47;2.42;89.76
68248;SHT30;55064;49.636;12.164;2022-11-30T08:51:14;2.48;89.31
68248;SHT30;55064;49.636;12.164;2022-11-30T08:53:46;2.42;88.97
68248;SHT30;55064;49.636;12.164;2022-11-30T08:56:20;2.41;88.82
68248;SHT30;55064;49.636;12.164;2022-11-30T08:58:47;2.32;89.74
68248;SHT30;55064;49.636;12.164;2022-11-30T09:01:19;2.39;89.32
68248;SHT30;55064;49.636;12.164;2022-11-30T09:03:48;2.41;89.64
68248;SHT30;55064;49.636;12.164;2022-11-30T09:06:17;2.41;89.87
68248;SHT30;55064;49.636;12.164;2022-11-30T09:08:48;2.36;89.33
68248;SHT30;55064;49.636;12.164;2022-11-30T09:11:20;2.26;89.41
68248;SHT30;55064;49.636;12.164;2022-11-30T09:13:46;2.28;89.59
68248;SHT30;55064;49.636;12.164;2022-11-30T09:16:15;2.36;89.74
68248;SHT30;55064;49.636;12.164;2022-11-30T09:18:41;2.36;89.58
68248;SHT30;55064;49.636;12.164;2022-11-30T09:21:08;2.26;89.43
68248;SHT30;55064;49.636;12.164;2022-11-30T09:23:35;2.29;89.75
68248;SHT30;55064;49.636;12.164;2022-11-30T09:26:04;2.29;89.71
68248;SHT30;55064;49.636;12.164;2022-11-30T09:28:30;2.35;90.01
68248;SHT30;55064;49.636;12.164;2022-11-30T09:31:06;2.44;89.52
68248;SHT30;55064;49.636;12.164;2022-11-30T09:33:33;2.41;90.15
68248;SHT30;55064;49.636;12.164;2022-11-30T09:36:04;2.36;89.24
68248;SHT30;55064;49.636;12.164;2022-11-30T09:38:32;2.29;89.87
68248;SHT30;55064;49.636;12.164;2022-11-30T09:41:45;2.38;90.80
68248;SHT30;55064;49.636;12.164;2022-11-30T09:44:02;2.44;89.80
68248;SHT30;55064;49.636;12.164;2022-11-30T09:46:43;2.35;89.30
68248;SHT30;55064;49.636;12.164;2022-11-30T09:49:23;2.45;90.27
68248;SHT30;55064;49.636;12.164;2022-11-30T09:51:55;2.44;90.74
68248;SHT30;55064;49.636;12.164;2022-11-30T09:54:38;2.34;89.63
68248;SHT30;55064;49.636;12.164;2022-11-30T10:00:20;2.25;90.36
68248;SHT30;55064;49.636;12.164;2022-11-30T10:02:49;2.24;90.23
68248;SHT30;55064;49.636;12.164;2022-11-30T10:10:38;2.34;90.58
68248;SHT30;55064;49.636;12.164;2022-11-30T10:27:16;2.46;88.98
68248;SHT30;55064;49.636;12.164;2022-11-30T10:29:42;2.42;89.07
68248;SHT30;55064;49.636;12.164;2022-11-30T10:32:18;2.49;89.42
68248;SHT30;55064;49.636;12.164;2022-11-30T10:34:46;2.48;90.51
68248;SHT30;55064;49.636;12.164;2022-11-30T10:37:32;2.48;90.04
68248;SHT30;55064;49.636;12.164;2022-11-30T10:40:11;2.36;88.44
68248;SHT30;55064;49.636;12.164;2022-11-30T10:42:48;2.46;89.15
68248;SHT30;55064;49.636;12.164;2022-11-30T10:45:19;2.44;89.52
68248;SHT30;55064;49.636;12.164;2022-11-30T10:47:53;2.49;89.25
68248;SHT30;55064;49.636;12.164;2022-11-30T10:50:24;2.46;88.76
68248;SHT30;55064;49.636;12.164;2022-11-30T10:52:51;2.38;89.23
68248;SHT30;55064;49.636;12.164;2022-11-30T10:55:24;2.45;89.20
68248;SHT30;55064;49.636;12.164;2022-11-30T10:57:57;2.34;88.66
68248;SHT30;55064;49.636;12.164;2022-11-30T11:00:24;2.31;88.60
68248;SHT30;55064;49.636;12.164;2022-11-30T11:02:51;2.41;88.83
68248;SHT30;55064;49.636;12.164;2022-11-30T11:05:24;2.32;88.27
68248;SHT30;55064;49.636;12.164;2022-11-30T11:08:16;2.31;89.46
68248;SHT30;55064;49.636;12.164;2022-11-30T11:10:45;2.29;89.12
68248;SHT30;55064;49.636;12.164;2022-11-30T11:16:03;2.34;89.14
68248;SHT30;55064;49.636;12.164;2022-11-30T11:18:30;2.39;89.23
68248;SHT30;55064;49.636;12.164;2022-11-30T11:23:35;2.42;89.81
68248;SHT30;55064;49.636;12.164;2022-11-30T11:26:01;2.32;88.77
68248;SHT30;55064;49.636;12.164;2022-11-30T11:28:36;2.35;88.80
68248;SHT30;55064;49.636;12.164;2022-11-30T11:31:34;2.36;88.81
68248;SHT30;55064;49.636;12.164;2022-11-30T11:34:01;2.41;88.78
68248;SHT30;55064;49.636;12.164;2022-11-30T11:36:32;2.41;88.62
68248;SHT30;55064;49.636;12.164;2022-11-30T11:38:59;2.38;89.41
68248;SHT30;55064;49.636;12.164;2022-11-30T11:41:30;2.38;89.14
68248;SHT30;55064;49.636;12.164;2022-11-30T11:46:53;2.28;89.01
68248;SHT30;55064;49.636;12.164;2022-11-30T11:49:27;2.22;89.89
68248;SHT30;55064;49.636;12.164;2022-11-30T11:52:01;2.15;89.28
68248;SHT30;55064;49.636;12.164;2022-11-30T11:54:34;2.14;89.89
68248;SHT30;55064;49.636;12.164;2022-11-30T11:57:01;2.08;89.54
68248;SHT30;55064;49.636;12.164;2022-11-30T12:04:53;2.04;88.40
68248;SHT30;55064;49.636;12.164;2022-11-30T12:07:37;1.98;88.25
68248;SHT30;55064;49.636;12.164;2022-11-30T12:10:52;2.03;88.28
68248;SHT30;55064;49.636;12.164;2022-11-30T12:13:26;2.07;89.20
68248;SHT30;55064;49.636;12.164;2022-11-30T12:16:21;2.03;88.26
68248;SHT30;55064;49.636;12.164;2022-11-30T12:19:02;2.06;88.34
68248;SHT30;55064;49.636;12.164;2022-11-30T12:38:58;2.14;88.22
68248;SHT30;55064;49.636;12.164;2022-11-30T12:52:54;2.15;89.17
68248;SHT30;55064;49.636;12.164;2022-11-30T13:03:34;2.04;88.52
68248;SHT30;55064;49.636;12.164;2022-11-30T13:06:08;2.04;88.37
68248;SHT30;55064;49.636;12.164;2022-11-30T13:08:51;2.03;88.36
68248;SHT30;55064;49.636;12.164;2022-11-30T13:11:28;2.03;88.72
68248;SHT30;55064;49.636;12.164;2022-11-30T13:13:58;2.08;88.58
68248;SHT30;55064;49.636;12.164;2022-11-30T13:16:28;2.11;88.48
68248;SHT30;55064;49.636;12.164;2022-11-30T13:19:00;2.07;88.50
68248;SHT30;55064;49.636;12.164;2022-11-30T13:21:45;2.08;88.00
68248;SHT30;55064;49.636;12.164;2022-11-30T13:24:20;2.08;88.18
68248;SHT30;55064;49.636;12.164;2022-11-30T13:26:58;2.07;88.15
68248;SHT30;55064;49.636;12.164;2022-11-30T13:32:06;2.07;88.03
68248;SHT30;55064;49.636;12.164;2022-11-30T13:34:37;2.01;87.66
68248;SHT30;55064;49.636;12.164;2022-11-30T13:37:19;2.03;88.09
68248;SHT30;55064;49.636;12.164;2022-11-30T13:39:52;1.97;87.81
68248;SHT30;55064;49.636;12.164;2022-11-30T13:44:52;1.97;88.39
68248;SHT30;55064;49.636;12.164;2022-11-30T13:50:04;2.07;88.25
68248;SHT30;55064;49.636;12.164;2022-11-30T13:58:09;1.91;89.08
68248;SHT30;55064;49.636;12.164;2022-11-30T14:05:52;1.90;89.07
68248;SHT30;55064;49.636;12.164;2022-11-30T14:18:21;2.10;88.59
68248;SHT30;55064;49.636;12.164;2022-11-30T14:25:55;2.03;87.98
68248;SHT30;55064;49.636;12.164;2022-11-30T14:28:37;1.98;87.95
68248;SHT30;55064;49.636;12.164;2022-11-30T14:31:06;1.88;89.19
68248;SHT30;55064;49.636;12.164;2022-11-30T14:33:43;1.96;88.60
68248;SHT30;55064;49.636;12.164;2022-11-30T14:36:12;1.90;88.69
68248;SHT30;55064;49.636;12.164;2022-11-30T14:38:41;1.91;88.60
68248;SHT30;55064;49.636;12.164;2022-11-30T14:41:20;1.91;88.75
68248;SHT30;55064;49.636;12.164;2022-11-30T14:44:09;1.96;89.05
68248;SHT30;55064;49.636;12.164;2022-11-30T14:46:35;1.96;88.63
68248;SHT30;55064;49.636;12.164;2022-11-30T14:51:49;1.94;89.03
68248;SHT30;55064;49.636;12.164;2022-11-30T14:54:58;1.91;89.14
68248;SHT30;55064;49.636;12.164;2022-11-30T14:57:33;1.87;89.14
68248;SHT30;55064;49.636;12.164;2022-11-30T15:00:02;1.86;89.48
68248;SHT30;55064;49.636;12.164;2022-11-30T15:02:32;1.80;89.74
68248;SHT30;55064;49.636;12.164;2022-11-30T15:05:00;1.76;90.04
68248;SHT30;55064;49.636;12.164;2022-11-30T15:07:29;1.81;90.02
68248;SHT30;55064;49.636;12.164;2022-11-30T15:10:06;1.90;89.67
68248;SHT30;55064;49.636;12.164;2022-11-30T15:12:37;1.88;89.33
68248;SHT30;55064;49.636;12.164;2022-11-30T15:15:12;1.80;89.03
68248;SHT30;55064;49.636;12.164;2022-11-30T15:17:45;1.81;89.60
68248;SHT30;55064;49.636;12.164;2022-11-30T15:20:38;1.83;89.85
68248;SHT30;55064;49.636;12.164;2022-11-30T15:23:12;1.87;89.49
68248;SHT30;55064;49.636;12.164;2022-11-30T15:25:44;1.86;89.56
68248;SHT30;55064;49.636;12.164;2022-11-30T15:28:13;1.86;89.52
68248;SHT30;55064;49.636;12.164;2022-11-30T15:30:40;1.84;90.00
68248;SHT30;55064;49.636;12.164;2022-11-30T15:33:18;1.84;89.93
68248;SHT30;55064;49.636;12.164;2022-11-30T15:35:50;1.80;89.93
68248;SHT30;55064;49.636;12.164;2022-11-30T15:38:25;1.88;89.38
68248;SHT30;55064;49.636;12.164;2022-11-30T15:41:00;1.96;89.24
68248;SHT30;55064;49.636;12.164;2022-11-30T15:43:29;1.90;89.81
68248;SHT30;55064;49.636;12.164;2022-11-30T15:45:57;1.96;89.43
68248;SHT30;55064;49.636;12.164;2022-11-30T15:48:31;1.96;89.44
68248;SHT30;55064;49.636;12.164;2022-11-30T15:50:58;2.01;89.24
68248;SHT30;55064;49.636;12.164;2022-11-30T15:56:05;1.94;89.36
68248;SHT30;55064;49.636;12.164;2022-11-30T16:00:59;1.83;89.96
68248;SHT30;55064;49.636;12.164;2022-11-30T16:03:24;1.91;89.98
68248;SHT30;55064;49.636;12.164;2022-11-30T16:05:58;1.87;89.90
68248;SHT30;55064;49.636;12.164;2022-11-30T16:08:29;1.88;90.13
68248;SHT30;55064;49.636;12.164;2022-11-30T16:10:56;1.90;89.82
68248;SHT30;55064;49.636;12.164;2022-11-30T16:13:22;1.81;89.30
68248;SHT30;55064;49.636;12.164;2022-11-30T16:15:50;1.87;88.90
68248;SHT30;55064;49.636;12.164;2022-11-30T16:18:25;1.83;89.25
68248;SHT30;55064;49.636;12.164;2022-11-30T16:20:56;1.80;88.95
68248;SHT30;55064;49.636;12.164;2022-11-30T16:23:24;1.79;88.92
68248;SHT30;55064;49.636;12.164;2022-11-30T16:25:55;1.74;88.83
68248;SHT30;55064;49.636;12.164;2022-11-30T16:28:23;1.80;89.08
68248;SHT30;55064;49.636;12.164;2022-11-30T16:30:53;1.83;89.12
68248;SHT30;55064;49.636;12.164;2022-11-30T16:33:22;1.70;89.42
68248;SHT30;55064;49.636;12.164;2022-11-30T16:36:07;1.77;89.42
68248;SHT30;55064;49.636;12.164;2022-11-30T16:38:51;1.80;89.51
68248;SHT30;55064;49.636;12.164;2022-11-30T16:41:23;1.83;89.41
68248;SHT30;55064;49.636;12.164;2022-11-30T16:47:04;1.83;89.29
68248;SHT30;55064;49.636;12.164;2022-11-30T16:49:33;1.83;89.35
68248;SHT30;55064;49.636;12.164;2022-11-30T16:54:53;1.84;89.65
68248;SHT30;55064;49.636;12.164;2022-11-30T16:57:21;1.80;89.63
68248;SHT30;55064;49.636;12.164;2022-11-30T16:59:49;1.84;89.91
68248;SHT30;55064;49.636;12.164;2022-11-30T17:02:20;1.84;89.48
68248;SHT30;55064;49.636;12.164;2022-11-30T17:04:49;1.79;89.30
68248;SHT30;55064;49.636;12.164;2022-11-30T17:07:15;1.74;89.21
68248;SHT30;55064;49.636;12.164;2022-11-30T17:09:40;1.67;90.11
68248;SHT30;55064;49.636;12.164;2022-11-30T17:12:08;1.76;89.69
68248;SHT30;55064;49.636;12.164;2022-11-30T17:14:33;1.73;89.33
68248;SHT30;55064;49.636;12.164;2022-11-30T17:17:01;1.77;89.44
68248;SHT30;55064;49.636;12.164;2022-11-30T17:19:26;1.83;89.58
68248;SHT30;55064;49.636;12.164;2022-11-30T17:21:52;1.81;89.13
68248;SHT30;55064;49.636;12.164;2022-11-30T17:24:18;1.80;89.27
68248;SHT30;55064;49.636;12.164;2022-11-30T17:26:43;1.77;88.93
68248;SHT30;55064;49.636;12.164;2022-11-30T17:29:09;1.79;89.17
68248;SHT30;55064;49.636;12.164;2022-11-30T17:31:36;1.80;89.14
68248;SHT30;55064;49.636;12.164;2022-11-30T17:34:02;1.84;89.38
68248;SHT30;55064;49.636;12.164;2022-11-30T17:36:27;1.88;89.66
68248;SHT30;55064;49.636;12.164;2022-11-30T17:38:55;1.90;89.64
68248;SHT30;55064;49.636;12.164;2022-11-30T17:41:21;1.88;89.41
68248;SHT30;55064;49.636;12.164;2022-11-30T17:43:50;1.94;89.50
68248;SHT30;55064;49.636;12.164;2022-11-30T17:46:17;1.90;90.05
68248;SHT30;55064;49.636;12.164;2022-11-30T17:48:43;1.90;89.25
68248;SHT30;55064;49.636;12.164;2022-11-30T17:51:12;1.90;89.41
68248;SHT30;55064;49.636;12.164;2022-11-30T17:53:39;1.94;89.60
68248;SHT30;55064;49.636;12.164;2022-11-30T17:56:10;1.96;89.65
68248;SHT30;55064;49.636;12.164;2022-11-30T17:58:39;2.01;89.36
68248;SHT30;55064;49.636;12.164;2022-11-30T18:01:08;1.97;89.56
68248;SHT30;55064;49.636;12.164;2022-11-30T18:03:43;2.03;89.21
68248;SHT30;55064;49.636;12.164;2022-11-30T18:06:11;2.07;89.31